Time;durP1;ratioP1;P1;durP2;ratioP2;P2;SDS_P1;SDS_P2;PMS_P1;PMS_P2;Temp;Humidity;BMP_temperature;BMP_pressure;BME280_temperature;BME280_humidity;BME280_pressure;Samples;Min_cycle;Max_cycle;Signal;HPM_P1;HPM_P2
2022/07/16 00:02:16;;;;;;;3.53;1.65;;;17.70;99.90;;;;;;5090798;28;20492;-68
2022/07/16 00:04:41;;;;;;;2.30;1.48;;;17.80;99.90;;;;;;5091178;28;20039;-68
2022/07/16 00:07:07;;;;;;;4.72;1.90;;;17.70;99.90;;;;;;5089717;28;20046;-67
2022/07/16 00:09:33;;;;;;;4.13;1.60;;;17.70;99.90;;;;;;5091555;28;20080;-67
2022/07/16 00:11:58;;;;;;;4.43;1.67;;;17.70;99.90;;;;;;5108729;28;20044;-67
2022/07/16 00:14:24;;;;;;;4.60;1.60;;;17.70;99.90;;;;;;5105703;28;20044;-68
2022/07/16 00:16:50;;;;;;;5.15;1.63;;;17.70;99.90;;;;;;5090275;28;20119;-67
2022/07/16 00:19:15;;;;;;;2.10;1.30;;;17.70;99.90;;;;;;5090749;28;20043;-68
2022/07/16 00:21:43;;;;;;;2.10;1.40;;;17.70;99.90;;;;;;5089565;28;20040;-67
2022/07/16 00:24:09;;;;;;;1.77;1.45;;;17.70;99.90;;;;;;5090852;28;20042;-67
2022/07/16 00:26:35;;;;;;;3.92;1.60;;;17.70;99.90;;;;;;5090643;28;20044;-67
2022/07/16 00:29:01;;;;;;;4.97;1.42;;;17.60;99.90;;;;;;5089545;28;20040;-67
2022/07/16 00:31:26;;;;;;;5.95;1.65;;;17.70;99.90;;;;;;5090934;28;20088;-67
2022/07/16 00:33:52;;;;;;;1.92;1.40;;;17.60;99.90;;;;;;5089067;28;20052;-68
2022/07/16 00:36:18;;;;;;;2.50;1.45;;;17.70;99.90;;;;;;5090697;28;20035;-68
2022/07/16 00:38:43;;;;;;;3.42;1.75;;;17.60;99.90;;;;;;5090472;28;20043;-67
2022/07/16 00:41:16;;;;;;;3.22;1.35;;;17.70;99.90;;;;;;5090510;28;20032;-67
2022/07/16 00:43:50;;;;;;;4.65;1.60;;;17.70;99.90;;;;;;5090550;28;20429;-67
2022/07/16 00:46:16;;;;;;;3.58;1.50;;;17.60;99.90;;;;;;5089189;28;20049;-67
2022/07/16 00:48:43;;;;;;;3.33;1.80;;;17.70;99.90;;;;;;5090336;28;20180;-67
2022/07/16 00:51:09;;;;;;;3.25;2.15;;;17.70;99.90;;;;;;5089033;28;20040;-68
2022/07/16 00:53:36;;;;;;;7.90;2.00;;;17.70;99.90;;;;;;5090198;28;20043;-67
2022/07/16 00:56:03;;;;;;;3.17;1.80;;;17.70;99.90;;;;;;5090293;28;20589;-67
2022/07/16 00:58:28;;;;;;;4.20;1.83;;;17.70;99.90;;;;;;5090452;28;20040;-67
2022/07/16 01:00:54;;;;;;;2.85;1.90;;;17.70;99.90;;;;;;5090644;28;20403;-67
2022/07/16 01:03:19;;;;;;;4.22;1.90;;;17.70;99.90;;;;;;5094313;28;20039;-67
2022/07/16 01:05:45;;;;;;;4.10;1.60;;;17.70;99.90;;;;;;5093085;28;20530;-68
2022/07/16 01:08:12;;;;;;;4.35;1.80;;;17.70;99.90;;;;;;5094342;28;20079;-67
2022/07/16 01:10:39;;;;;;;5.07;2.28;;;17.70;99.90;;;;;;5094444;28;20101;-68
2022/07/16 01:13:07;;;;;;;4.65;2.25;;;17.70;99.90;;;;;;5094086;28;20043;-67
2022/07/16 01:15:32;;;;;;;4.32;1.77;;;17.70;99.90;;;;;;5094527;28;20048;-67
2022/07/16 01:17:58;;;;;;;5.93;1.92;;;17.70;99.90;;;;;;5093165;28;20446;-67
2022/07/16 01:20:23;;;;;;;6.15;2.17;;;17.70;99.90;;;;;;5102042;28;20036;-67
2022/07/16 01:22:52;;;;;;;4.38;2.30;;;17.70;99.90;;;;;;5109595;28;20400;-67
2022/07/16 01:25:18;;;;;;;3.33;1.88;;;17.70;99.90;;;;;;5094247;28;20043;-67
2022/07/16 01:27:43;;;;;;;4.97;1.65;;;17.70;99.90;;;;;;5092834;28;20040;-67
2022/07/16 01:30:09;;;;;;;4.43;1.88;;;17.70;99.90;;;;;;5094192;28;20408;-67
2022/07/16 01:32:37;;;;;;;8.90;1.95;;;17.70;99.90;;;;;;5093716;28;20132;-67
2022/07/16 01:35:03;;;;;;;3.92;2.03;;;17.70;99.90;;;;;;5093984;28;20089;-67
2022/07/16 01:37:29;;;;;;;2.90;1.90;;;17.60;99.90;;;;;;5092390;28;20094;-67
2022/07/16 01:39:54;;;;;;;3.72;2.00;;;17.60;99.90;;;;;;5092404;28;20484;-67
2022/07/16 01:42:20;;;;;;;5.13;2.20;;;17.60;99.90;;;;;;5093619;28;20050;-67
2022/07/16 01:44:46;;;;;;;6.18;2.25;;;17.70;99.90;;;;;;5093972;28;20092;-67
2022/07/16 01:47:13;;;;;;;4.30;2.47;;;17.60;99.90;;;;;;5093721;28;20044;-67
2022/07/16 01:49:39;;;;;;;10.73;3.58;;;17.60;99.90;;;;;;5092378;28;20086;-68
2022/07/16 01:52:17;;;;;;;9.20;2.65;;;17.50;99.90;;;;;;5093331;28;20552;-68
2022/07/16 01:54:45;;;;;;;5.47;2.30;;;17.40;99.90;;;;;;5093783;28;20036;-68
2022/07/16 01:57:11;;;;;;;4.18;2.47;;;17.30;99.90;;;;;;5093445;28;20503;-68
2022/07/16 01:59:38;;;;;;;4.22;2.22;;;17.20;99.90;;;;;;5093439;28;20098;-68
2022/07/16 02:02:03;;;;;;;3.78;2.00;;;17.20;99.90;;;;;;5093466;28;20055;-67
2022/07/16 02:04:29;;;;;;;6.72;2.67;;;17.20;99.90;;;;;;5092982;28;20035;-68
2022/07/16 02:06:55;;;;;;;6.50;2.40;;;17.10;99.90;;;;;;5093396;28;20514;-68
2022/07/16 02:09:20;;;;;;;5.72;2.70;;;17.10;99.90;;;;;;5093372;28;20044;-68
2022/07/16 02:11:46;;;;;;;5.97;2.13;;;17.10;99.90;;;;;;5093480;28;20640;-68
2022/07/16 02:14:12;;;;;;;4.35;2.60;;;17.10;99.90;;;;;;5090163;28;20120;-68
2022/07/16 02:16:37;;;;;;;4.50;2.63;;;17.10;99.90;;;;;;5091687;28;20081;-69
2022/07/16 02:19:03;;;;;;;6.05;2.90;;;17.10;99.90;;;;;;5091825;28;20518;-69
2022/07/16 02:21:30;;;;;;;3.95;2.50;;;17.10;99.90;;;;;;5092873;28;20036;-68
2022/07/16 02:23:56;;;;;;;4.18;2.67;;;17.00;99.90;;;;;;5091620;28;20105;-69
2022/07/16 02:26:22;;;;;;;4.10;2.50;;;17.00;99.90;;;;;;5093313;28;20040;-69
2022/07/16 02:28:47;;;;;;;5.38;2.70;;;17.00;99.90;;;;;;5113822;28;20069;-68
2022/07/16 02:31:13;;;;;;;6.97;2.97;;;17.00;99.90;;;;;;5106290;28;20046;-69
2022/07/16 02:33:39;;;;;;;7.95;2.85;;;17.00;99.90;;;;;;5093005;28;20036;-69
2022/07/16 02:36:05;;;;;;;8.18;3.22;;;17.00;99.90;;;;;;5092697;28;20047;-69
2022/07/16 02:38:31;;;;;;;4.97;2.90;;;16.90;99.90;;;;;;5091161;28;20043;-69
2022/07/16 02:40:56;;;;;;;7.00;2.65;;;16.90;99.90;;;;;;5092968;28;20046;-68
2022/07/16 02:43:22;;;;;;;6.85;3.15;;;16.90;99.90;;;;;;5091163;28;20059;-68
2022/07/16 02:45:47;;;;;;;5.20;2.90;;;16.90;99.90;;;;;;5092528;28;20040;-67
2022/07/16 02:48:13;;;;;;;5.03;2.90;;;16.90;99.90;;;;;;5090829;28;20036;-69
2022/07/16 02:50:39;;;;;;;5.25;3.33;;;16.90;99.90;;;;;;5092215;28;20048;-68
2022/07/16 02:53:05;;;;;;;7.00;3.50;;;16.90;99.90;;;;;;5091938;28;20036;-68
2022/07/16 02:55:31;;;;;;;5.40;2.80;;;16.90;99.90;;;;;;5092184;28;20093;-68
2022/07/16 02:57:57;;;;;;;6.43;3.08;;;16.90;99.90;;;;;;5092043;28;20555;-68
2022/07/16 03:00:23;;;;;;;7.38;3.35;;;16.90;99.90;;;;;;5091903;28;20526;-68
2022/07/16 03:02:49;;;;;;;5.35;3.05;;;16.90;99.90;;;;;;5073530;28;20047;-68
2022/07/16 03:05:14;;;;;;;4.80;2.90;;;16.80;99.90;;;;;;5092002;28;20040;-68
2022/07/16 03:07:40;;;;;;;5.97;2.47;;;16.80;99.90;;;;;;5090843;28;20109;-68
2022/07/16 03:10:08;;;;;;;5.07;3.03;;;16.80;99.90;;;;;;5092072;28;20040;-69
2022/07/16 03:12:33;;;;;;;6.18;3.08;;;16.80;99.90;;;;;;5091963;28;20431;-68
2022/07/16 03:15:02;;;;;;;7.57;3.10;;;16.80;99.90;;;;;;5090703;28;20039;-69
2022/07/16 03:17:27;;;;;;;6.65;2.53;;;16.80;99.90;;;;;;5091890;28;20052;-69
2022/07/16 03:19:53;;;;;;;4.72;2.30;;;16.80;99.90;;;;;;5091535;28;20050;-68
2022/07/16 03:22:18;;;;;;;5.55;2.40;;;16.70;99.90;;;;;;5091418;28;20111;-69
2022/07/16 03:24:44;;;;;;;3.45;2.22;;;16.70;99.90;;;;;;5090035;28;20047;-68
2022/07/16 03:27:10;;;;;;;4.88;2.40;;;16.80;99.90;;;;;;5087426;28;20044;-68
2022/07/16 03:29:36;;;;;;;4.70;2.13;;;16.70;99.90;;;;;;5089301;28;20076;-68
2022/07/16 03:32:01;;;;;;;4.82;2.72;;;16.70;99.90;;;;;;5089408;28;20855;-68
2022/07/16 03:34:27;;;;;;;5.32;2.30;;;16.70;99.90;;;;;;5091298;28;20120;-69
2022/07/16 03:36:52;;;;;;;6.07;2.53;;;16.60;99.90;;;;;;5110730;28;20040;-67
2022/07/16 03:39:18;;;;;;;6.47;2.45;;;16.70;99.90;;;;;;5105701;28;20046;-67
2022/07/16 03:41:44;;;;;;;5.15;2.60;;;16.70;99.90;;;;;;5092026;28;20063;-67
2022/07/16 03:44:11;;;;;;;5.80;2.70;;;16.60;99.90;;;;;;5091683;28;20480;-68
2022/07/16 03:46:38;;;;;;;7.68;2.78;;;16.60;99.90;;;;;;5091628;28;20075;-68
2022/07/16 03:49:04;;;;;;;6.93;2.63;;;16.60;99.90;;;;;;5090163;28;20040;-68
2022/07/16 03:51:30;;;;;;;4.82;2.20;;;16.60;99.90;;;;;;5091606;28;20036;-68
2022/07/16 03:53:56;;;;;;;3.72;2.30;;;16.60;99.90;;;;;;5091084;28;20035;-68
2022/07/16 03:56:21;;;;;;;4.20;2.10;;;16.60;99.90;;;;;;5089888;28;20046;-68
2022/07/16 03:58:47;;;;;;;7.80;1.98;;;16.60;99.90;;;;;;5091060;28;20501;-67
2022/07/16 04:01:13;;;;;;;5.78;1.83;;;16.60;99.90;;;;;;5091025;28;20036;-68
2022/07/16 04:03:39;;;;;;;7.55;2.28;;;16.60;99.90;;;;;;5091016;28;20028;-68
2022/07/16 04:06:05;;;;;;;5.03;1.98;;;16.60;99.90;;;;;;5091010;28;20072;-68
2022/07/16 04:08:32;;;;;;;6.47;2.15;;;16.70;99.90;;;;;;5091034;28;20040;-68
2022/07/16 04:10:57;;;;;;;6.57;2.20;;;16.60;99.90;;;;;;5089993;28;20054;-68
2022/07/16 04:13:23;;;;;;;5.10;1.80;;;16.70;99.90;;;;;;5090632;28;20036;-68
2022/07/16 04:15:48;;;;;;;3.17;1.95;;;16.70;99.90;;;;;;5090620;28;20036;-68
2022/07/16 04:18:14;;;;;;;7.45;2.00;;;16.80;99.90;;;;;;5091030;28;20403;-68
2022/07/16 04:20:40;;;;;;;8.02;1.95;;;16.80;99.90;;;;;;5090731;28;20032;-68
2022/07/16 04:23:05;;;;;;;4.93;1.98;;;16.80;99.90;;;;;;5090583;28;20111;-68
2022/07/16 04:25:32;;;;;;;7.43;1.77;;;16.90;99.90;;;;;;5090660;28;20044;-68
2022/07/16 04:27:57;;;;;;;2.45;1.50;;;16.80;99.90;;;;;;5090763;28;20115;-68
2022/07/16 04:30:23;;;;;;;7.93;1.88;;;16.90;99.90;;;;;;5090499;28;20119;-68
2022/07/16 04:32:49;;;;;;;5.45;1.70;;;16.90;99.90;;;;;;5090544;28;20125;-68
2022/07/16 04:35:15;;;;;;;3.55;1.90;;;17.00;99.90;;;;;;5090503;28;20040;-68
2022/07/16 04:37:41;;;;;;;6.22;1.65;;;17.10;99.90;;;;;;5088580;28;20035;-69
2022/07/16 04:40:09;;;;;;;4.55;1.63;;;17.10;99.90;;;;;;5089191;28;20040;-68
2022/07/16 04:42:43;;;;;;;7.85;1.80;;;17.20;99.90;;;;;;5089270;28;20373;-69
2022/07/16 04:45:10;;;;;;;4.85;1.73;;;17.20;99.90;;;;;;5108026;28;20036;-68
2022/07/16 04:47:36;;;;;;;5.25;1.70;;;17.30;99.90;;;;;;5103590;28;20172;-68
2022/07/16 04:50:02;;;;;;;5.25;1.70;;;17.40;99.90;;;;;;5089273;28;20040;-68
2022/07/16 04:52:30;;;;;;;9.90;1.73;;;17.40;99.90;;;;;;5088958;28;20089;-68
2022/07/16 04:54:56;;;;;;;7.32;1.48;;;17.50;99.90;;;;;;5089252;28;20113;-68
2022/07/16 04:57:22;;;;;;;4.82;1.85;;;17.60;99.90;;;;;;5090266;28;20123;-68
2022/07/16 04:59:47;;;;;;;3.72;1.70;;;17.70;99.90;;;;;;5090302;28;20127;-68
2022/07/16 05:04:57;;;;;;;8.68;2.38;;;17.80;99.90;;;;;;5088895;28;20579;-68
2022/07/16 05:07:23;;;;;;;11.27;2.25;;;17.90;99.90;;;;;;5090018;28;20036;-69
2022/07/16 05:09:48;;;;;;;6.57;1.85;;;18.00;99.90;;;;;;5089017;28;20435;-68
2022/07/16 05:12:14;;;;;;;4.00;1.58;;;18.10;99.90;;;;;;5090597;28;20804;-69
2022/07/16 05:14:39;;;;;;;6.00;1.70;;;18.20;99.90;;;;;;5089197;28;20515;-68
2022/07/16 05:17:05;;;;;;;3.83;1.90;;;18.30;99.90;;;;;;5090270;28;20044;-68
2022/07/16 05:19:30;;;;;;;6.65;1.55;;;18.30;99.90;;;;;;5090022;28;20048;-69
2022/07/16 05:21:56;;;;;;;7.72;1.80;;;18.40;99.90;;;;;;5090017;28;20102;-69
2022/07/16 05:24:21;;;;;;;4.15;1.50;;;18.40;99.90;;;;;;5088788;28;20055;-69
2022/07/16 05:26:47;;;;;;;10.18;1.85;;;18.50;99.90;;;;;;5090070;28;20051;-69
2022/07/16 05:29:13;;;;;;;6.65;1.40;;;18.50;99.90;;;;;;5090017;28;20101;-69
2022/07/16 05:31:38;;;;;;;8.23;1.70;;;18.50;99.90;;;;;;5089947;28;20494;-68
2022/07/16 05:34:05;;;;;;;5.93;1.55;;;18.70;99.90;;;;;;5088525;28;20056;-68
2022/07/16 05:36:30;;;;;;;6.90;1.50;;;18.70;99.90;;;;;;5088799;28;20412;-69
2022/07/16 05:38:56;;;;;;;9.70;1.90;;;18.70;99.90;;;;;;5089931;28;20548;-69
2022/07/16 05:41:21;;;;;;;8.02;2.20;;;18.80;99.90;;;;;;5089933;28;20032;-69
2022/07/16 05:43:47;;;;;;;3.13;1.30;;;18.90;99.90;;;;;;5089777;28;20048;-69
2022/07/16 05:46:12;;;;;;;7.18;1.88;;;18.60;99.90;;;;;;5089874;28;20499;-69
2022/07/16 05:48:38;;;;;;;4.65;1.60;;;18.70;99.90;;;;;;5091369;28;20067;-69
2022/07/16 05:51:04;;;;;;;3.67;1.40;;;18.80;99.90;;;;;;5093624;28;20455;-69
2022/07/16 05:53:29;;;;;;;9.25;1.58;;;18.70;99.90;;;;;;5112608;28;20072;-68
2022/07/16 05:55:55;;;;;;;7.65;1.50;;;18.70;99.90;;;;;;5108933;28;20036;-68
2022/07/16 05:58:20;;;;;;;5.53;1.40;;;18.60;99.90;;;;;;5093893;28;20557;-68
2022/07/16 06:00:46;;;;;;;7.63;1.70;;;18.70;99.90;;;;;;5093437;28;20047;-68
2022/07/16 06:03:11;;;;;;;6.63;1.63;;;18.60;99.90;;;;;;5093295;28;20036;-68
2022/07/16 06:05:37;;;;;;;5.82;1.40;;;18.50;99.90;;;;;;5093484;28;20113;-68
2022/07/16 06:08:03;;;;;;;6.68;1.70;;;18.50;99.90;;;;;;5093387;28;20432;-68
2022/07/16 06:10:28;;;;;;;4.72;1.33;;;18.60;99.90;;;;;;5093348;28;20074;-69
2022/07/16 06:12:54;;;;;;;9.98;1.40;;;18.80;99.90;;;;;;5091847;28;20079;-68
2022/07/16 06:15:20;;;;;;;5.90;1.55;;;18.90;99.90;;;;;;5093208;28;20044;-68
2022/07/16 06:17:45;;;;;;;6.50;1.20;;;18.90;99.90;;;;;;5093385;28;20458;-68
2022/07/16 06:20:11;;;;;;;9.55;1.35;;;18.70;99.90;;;;;;5091384;28;20044;-68
2022/07/16 06:22:38;;;;;;;5.00;1.60;;;18.70;99.90;;;;;;5092902;28;20418;-68
2022/07/16 06:25:04;;;;;;;6.65;1.40;;;18.60;99.90;;;;;;5092986;28;20455;-68
2022/07/16 06:27:30;;;;;;;5.88;1.30;;;18.60;99.90;;;;;;5091499;28;20127;-68
2022/07/16 06:29:56;;;;;;;5.57;1.33;;;18.60;99.90;;;;;;5092855;28;20048;-68
2022/07/16 06:32:21;;;;;;;7.18;1.35;;;18.60;99.90;;;;;;5092572;28;20043;-68
2022/07/16 06:34:47;;;;;;;4.75;1.45;;;18.70;99.90;;;;;;5092804;28;20032;-68
2022/07/16 06:37:13;;;;;;;8.45;1.40;;;18.80;99.90;;;;;;5091326;28;20074;-68
2022/07/16 06:39:40;;;;;;;6.40;1.50;;;18.90;99.90;;;;;;5092539;28;20105;-68
2022/07/16 06:42:06;;;;;;;9.05;1.48;;;18.80;99.90;;;;;;5092515;28;20044;-69
2022/07/16 06:44:32;;;;;;;5.85;1.17;;;18.80;99.90;;;;;;5091104;28;20400;-68
2022/07/16 06:46:57;;;;;;;5.47;1.00;;;18.70;99.90;;;;;;5091060;28;20114;-68
2022/07/16 06:49:23;;;;;;;5.97;1.35;;;18.90;99.90;;;;;;5092400;28;20496;-67
2022/07/16 06:51:48;;;;;;;9.32;1.60;;;18.90;99.90;;;;;;5092458;28;20031;-67
2022/07/16 06:54:14;;;;;;;7.60;1.23;;;18.90;99.90;;;;;;5092146;28;20102;-68
2022/07/16 06:56:39;;;;;;;8.10;1.60;;;18.90;99.90;;;;;;5092494;28;20032;-68
2022/07/16 06:59:05;;;;;;;4.60;0.90;;;18.90;99.90;;;;;;5091742;28;20033;-68
2022/07/16 07:01:31;;;;;;;4.10;1.20;;;19.10;99.90;;;;;;5107246;28;20225;-68
2022/07/16 07:03:56;;;;;;;4.78;1.10;;;19.00;99.90;;;;;;5108614;28;20054;-68
2022/07/16 07:06:22;;;;;;;8.38;1.25;;;18.80;99.90;;;;;;5092866;28;20163;-69
2022/07/16 07:08:47;;;;;;;5.03;0.82;;;18.60;99.90;;;;;;5070497;28;20052;-68
2022/07/16 07:11:13;;;;;;;4.68;1.35;;;18.70;99.90;;;;;;5071861;28;20037;-67
2022/07/16 07:13:39;;;;;;;5.95;1.17;;;18.70;99.90;;;;;;5070232;28;20044;-68
2022/07/16 07:16:05;;;;;;;4.18;1.02;;;18.60;99.90;;;;;;5071853;28;20040;-68
2022/07/16 07:18:32;;;;;;;7.40;1.27;;;18.60;99.90;;;;;;5070279;28;20044;-67
2022/07/16 07:21:00;;;;;;;6.97;1.02;;;18.20;99.90;;;;;;5071683;28;20435;-68
2022/07/16 07:23:26;;;;;;;8.00;1.25;;;18.30;99.90;;;;;;5069931;28;20133;-68
2022/07/16 07:25:51;;;;;;;9.68;1.63;;;18.40;99.90;;;;;;5070302;28;20671;-68
2022/07/16 07:28:17;;;;;;;5.45;1.05;;;18.20;99.90;;;;;;5071518;28;20496;-68
2022/07/16 07:30:43;;;;;;;4.72;1.02;;;18.60;99.90;;;;;;5071490;28;20046;-68
2022/07/16 07:33:09;;;;;;;7.78;1.08;;;18.70;99.90;;;;;;5071314;28;20106;-67
2022/07/16 07:35:34;;;;;;;6.35;0.95;;;18.70;99.90;;;;;;5071094;28;20098;-68
2022/07/16 07:38:01;;;;;;;9.32;1.10;;;18.70;99.90;;;;;;5072827;28;20072;-72
2022/07/16 07:40:27;;;;;;;8.23;0.82;;;18.80;99.90;;;;;;5070050;28;20076;-73
2022/07/16 07:42:54;;;;;;;3.63;1.05;;;18.80;99.90;;;;;;5069661;28;20098;-71
2022/07/16 07:45:20;;;;;;;5.72;0.70;;;18.70;99.90;;;;;;5069946;28;20036;-71
2022/07/16 07:47:45;;;;;;;5.70;1.27;;;18.70;99.90;;;;;;5069715;28;20074;-72
2022/07/16 07:50:11;;;;;;;8.30;1.05;;;18.80;99.90;;;;;;5072517;28;20040;-72
2022/07/16 07:52:37;;;;;;;5.82;0.80;;;18.80;99.90;;;;;;5071589;28;20087;-74
2022/07/16 07:55:03;;;;;;;4.53;0.88;;;19.00;99.90;;;;;;5070158;28;20055;-75
2022/07/16 07:57:29;;;;;;;5.82;0.90;;;19.20;99.90;;;;;;5069656;28;20070;-75
2022/07/16 07:59:54;;;;;;;5.32;0.80;;;19.00;99.90;;;;;;5053364;28;20105;-74
2022/07/16 08:02:20;;;;;;;5.30;1.20;;;18.90;99.90;;;;;;5069424;28;20107;-74
2022/07/16 08:04:46;;;;;;;2.47;0.80;;;18.80;99.90;;;;;;5069667;28;20048;-74
2022/07/16 08:07:11;;;;;;;1.92;0.80;;;18.80;99.90;;;;;;5075778;28;20040;-74
2022/07/16 08:09:37;;;;;;;7.30;0.98;;;18.60;99.90;;;;;;5094274;28;20071;-76
2022/07/16 08:12:03;;;;;;;4.60;0.95;;;18.40;99.90;;;;;;5091825;28;20074;-74
2022/07/16 08:14:28;;;;;;;3.83;0.90;;;18.50;99.90;;;;;;5070656;28;20040;-74
2022/07/16 08:16:55;;;;;;;3.10;0.98;;;18.80;99.90;;;;;;5053337;28;20135;-74
2022/07/16 08:19:21;;;;;;;5.65;0.75;;;18.70;99.90;;;;;;5069335;28;20048;-75
2022/07/16 08:21:47;;;;;;;5.03;0.82;;;18.80;99.90;;;;;;5069380;28;20109;-74
2022/07/16 08:26:57;;;;;;;7.68;1.13;;;18.50;99.90;;;;;;5069659;28;20045;-74
2022/07/16 08:29:23;;;;;;;4.07;1.10;;;18.50;99.90;;;;;;5052818;28;20662;-74
2022/07/16 08:31:48;;;;;;;5.97;0.80;;;18.70;99.90;;;;;;5095046;28;20134;-73
2022/07/16 08:34:14;;;;;;;4.05;1.00;;;18.70;99.90;;;;;;5082604;28;20056;-74
2022/07/16 08:36:40;;;;;;;8.65;1.00;;;18.80;99.90;;;;;;5087633;28;20051;-74
2022/07/16 08:39:05;;;;;;;6.72;0.75;;;18.60;99.90;;;;;;5079622;28;20496;-75
2022/07/16 08:41:32;;;;;;;4.93;1.00;;;18.60;99.90;;;;;;5079953;28;20029;-74
2022/07/16 08:43:58;;;;;;;7.72;1.02;;;18.50;99.90;;;;;;5079514;28;20061;-72
2022/07/16 08:46:26;;;;;;;4.30;0.85;;;18.60;99.90;;;;;;5081319;28;20089;-74
2022/07/16 08:48:53;;;;;;;4.38;0.90;;;18.60;99.90;;;;;;5078401;28;20028;-73
2022/07/16 08:51:22;;;;;;;7.40;0.80;;;18.70;99.90;;;;;;5078030;28;20038;-73
2022/07/16 08:53:50;;;;;;;4.57;0.70;;;18.80;99.90;;;;;;5078140;28;20418;-75
2022/07/16 08:56:17;;;;;;;3.60;0.90;;;19.20;99.90;;;;;;5083736;28;20067;-73
2022/07/16 08:58:43;;;;;;;9.10;0.88;;;19.20;99.90;;;;;;5089676;28;20475;-74
2022/07/16 09:01:09;;;;;;;8.70;1.10;;;19.30;99.90;;;;;;5089821;28;20383;-75
2022/07/16 09:03:34;;;;;;;5.13;0.77;;;19.20;99.90;;;;;;5089131;28;20097;-75
2022/07/16 09:06:00;;;;;;;3.78;0.85;;;19.30;99.90;;;;;;5089364;28;20399;-74
2022/07/16 09:08:26;;;;;;;2.58;0.70;;;19.40;99.90;;;;;;5090155;28;20099;-73
2022/07/16 09:10:51;;;;;;;3.45;0.95;;;19.50;99.90;;;;;;5072068;28;20055;-74
2022/07/16 09:13:17;;;;;;;3.35;1.25;;;19.50;99.90;;;;;;5089083;28;20087;-73
2022/07/16 09:15:43;;;;;;;2.08;0.70;;;19.70;99.20;;;;;;5072523;28;20138;-73
2022/07/16 09:18:23;;;;;;;4.15;0.93;;;19.90;99.90;;;;;;5111519;28;20040;-73
2022/07/16 09:21:00;;;;;;;4.93;0.98;;;19.70;98.80;;;;;;5106135;28;20058;-72
2022/07/16 09:23:36;;;;;;;2.60;0.90;;;19.80;99.20;;;;;;5095188;28;20040;-73
2022/07/16 09:26:06;;;;;;;11.25;1.15;;;19.90;99.80;;;;;;5096498;28;20031;-74
2022/07/16 09:28:46;;;;;;;3.08;0.75;;;20.00;99.70;;;;;;5094473;28;20051;-74
2022/07/16 09:31:32;;;;;;;6.57;0.93;;;19.70;99.70;;;;;;5094000;28;20044;-74
2022/07/16 09:34:09;;;;;;;4.25;0.98;;;19.60;98.60;;;;;;5094429;28;20119;-74
2022/07/16 09:36:36;;;;;;;5.75;0.90;;;19.80;99.30;;;;;;5093814;28;20656;-74
2022/07/16 09:39:03;;;;;;;5.30;1.00;;;19.90;98.60;;;;;;5093193;28;20040;-73
2022/07/16 09:41:41;;;;;;;4.82;1.00;;;19.80;98.60;;;;;;5092537;28;20040;-74
2022/07/16 09:44:23;;;;;;;2.95;0.82;;;19.90;98.80;;;;;;5092507;28;20146;-74
2022/07/16 09:47:12;;;;;;;5.18;0.90;;;20.00;98.10;;;;;;5092773;28;20389;-73
2022/07/16 09:49:39;;;;;;;2.90;0.70;;;20.20;97.60;;;;;;5092778;28;20036;-73
2022/07/16 09:52:06;;;;;;;2.05;0.88;;;20.00;96.80;;;;;;5092742;28;20036;-73
2022/07/16 09:54:38;;;;;;;5.10;1.02;;;20.00;97.60;;;;;;5092870;28;20399;-74
2022/07/16 09:57:13;;;;;;;7.15;1.25;;;19.80;97.90;;;;;;5092791;28;20468;-74
2022/07/16 09:59:39;;;;;;;4.57;0.80;;;20.20;97.90;;;;;;5092260;28;20032;-74
2022/07/16 10:02:05;;;;;;;5.40;0.95;;;20.20;98.70;;;;;;5092332;28;20081;-74
2022/07/16 10:04:31;;;;;;;5.72;1.20;;;20.30;98.30;;;;;;5092023;28;20425;-74
2022/07/16 10:06:58;;;;;;;3.30;1.05;;;20.10;98.70;;;;;;5092330;28;20062;-74
2022/07/16 10:09:24;;;;;;;7.80;1.20;;;20.40;98.60;;;;;;5092002;28;20085;-74
2022/07/16 10:11:52;;;;;;;8.93;1.00;;;20.40;98.60;;;;;;5092624;28;20500;-74
2022/07/16 10:14:18;;;;;;;4.20;0.85;;;20.40;99.30;;;;;;5092239;28;20044;-74
2022/07/16 10:16:45;;;;;;;3.60;1.20;;;20.30;99.00;;;;;;5093878;28;20165;-74
2022/07/16 10:19:12;;;;;;;6.95;1.02;;;20.40;98.80;;;;;;5091866;28;20048;-74
2022/07/16 10:21:39;;;;;;;3.75;1.10;;;20.40;99.00;;;;;;5074947;28;20040;-74
2022/07/16 10:24:05;;;;;;;6.68;1.10;;;20.20;99.00;;;;;;5093143;28;20036;-74
2022/07/16 10:26:35;;;;;;;9.82;1.05;;;20.10;98.40;;;;;;5117216;28;20040;-75
2022/07/16 10:29:02;;;;;;;5.70;0.95;;;20.10;98.60;;;;;;5092592;28;20104;-74
2022/07/16 10:34:32;;;;;;;4.13;1.08;;;20.10;99.00;;;;;;5091320;28;20055;-74
2022/07/16 10:36:58;;;;;;;6.97;1.02;;;20.00;99.20;;;;;;5091603;28;20048;-74
2022/07/16 10:39:26;;;;;;;4.68;1.13;;;19.80;99.40;;;;;;5091968;28;20615;-74
2022/07/16 10:41:54;;;;;;;4.13;1.10;;;20.00;99.00;;;;;;5092480;28;20051;-74
2022/07/16 10:44:23;;;;;;;6.82;1.13;;;19.90;98.90;;;;;;5091159;28;20043;-74
2022/07/16 10:46:57;;;;;;;11.10;1.35;;;19.80;99.70;;;;;;5091463;28;20567;-75
2022/07/16 10:49:25;;;;;;;7.30;1.40;;;19.90;99.90;;;;;;5091450;28;20364;-75
2022/07/16 10:51:58;;;;;;;5.43;1.02;;;20.10;99.90;;;;;;5091284;28;20040;-75
2022/07/16 10:54:25;;;;;;;6.15;0.98;;;20.20;99.90;;;;;;5090986;28;20036;-74
2022/07/16 10:56:53;;;;;;;9.02;0.95;;;20.30;99.90;;;;;;5091479;28;20036;-69
2022/07/16 10:59:25;;;;;;;5.60;1.08;;;20.40;99.70;;;;;;5090630;28;20044;-69
2022/07/16 11:01:53;;;;;;;3.10;1.00;;;20.50;99.90;;;;;;5091270;28;20043;-69
2022/07/16 11:04:32;;;;;;;6.78;1.13;;;20.70;99.80;;;;;;5090575;28;20142;-69
2022/07/16 11:07:00;;;;;;;5.35;0.93;;;20.60;99.30;;;;;;5090868;28;20043;-69
2022/07/16 11:09:29;;;;;;;3.10;0.82;;;20.70;98.80;;;;;;5091718;28;20067;-69
2022/07/16 11:12:05;;;;;;;3.05;0.80;;;20.90;98.40;;;;;;5092049;28;20388;-69
2022/07/16 11:14:30;;;;;;;7.20;1.08;;;21.00;96.90;;;;;;5091907;28;20028;-69
2022/07/16 11:16:57;;;;;;;2.00;0.73;;;20.90;97.50;;;;;;5090722;28;20040;-69
2022/07/16 11:19:22;;;;;;;5.00;1.15;;;20.70;96.60;;;;;;5090694;28;20697;-69
2022/07/16 11:21:53;;;;;;;3.30;0.65;;;20.70;97.60;;;;;;5091688;28;20040;-69
2022/07/16 11:24:19;;;;;;;2.03;0.90;;;20.90;97.20;;;;;;5091916;28;20043;-69
2022/07/16 11:26:44;;;;;;;6.05;0.98;;;20.90;97.20;;;;;;5090370;28;20040;-69
2022/07/16 11:29:10;;;;;;;2.10;0.93;;;20.90;96.60;;;;;;5091694;28;20492;-69
2022/07/16 11:31:36;;;;;;;5.00;0.77;;;20.80;96.40;;;;;;5091827;28;20488;-69
2022/07/16 11:34:07;;;;;;;4.45;0.80;;;20.80;94.80;;;;;;5102379;28;20051;-69
2022/07/16 11:36:37;;;;;;;3.03;0.80;;;21.00;96.40;;;;;;5114902;28;20051;-69
2022/07/16 11:39:07;;;;;;;5.10;0.90;;;21.00;95.50;;;;;;5090353;28;20043;-69
2022/07/16 11:41:35;;;;;;;5.53;0.80;;;20.90;95.80;;;;;;5091532;28;20052;-69
2022/07/16 11:44:12;;;;;;;3.83;0.80;;;20.80;96.20;;;;;;5091175;28;20514;-69
2022/07/16 11:46:46;;;;;;;4.38;1.17;;;20.60;95.30;;;;;;5089534;28;20094;-69
2022/07/16 11:49:24;;;;;;;8.40;1.20;;;20.80;95.70;;;;;;5089991;28;20047;-69
2022/07/16 11:51:51;;;;;;;4.53;0.90;;;20.90;95.30;;;;;;5091701;28;20039;-68
2022/07/16 11:54:17;;;;;;;11.98;2.05;;;21.10;95.60;;;;;;5091187;28;20040;-69
2022/07/16 11:56:42;;;;;;;4.07;1.00;;;21.00;95.60;;;;;;5089978;28;20586;-69
2022/07/16 11:59:28;;;;;;;3.78;1.00;;;20.90;95.70;;;;;;5089848;28;20105;-69
2022/07/16 12:02:03;;;;;;;6.70;2.13;;;21.00;95.90;;;;;;5091378;28;20507;-69
2022/07/16 12:04:42;;;;;;;6.85;1.02;;;20.90;95.30;;;;;;5089508;28;20040;-69
2022/07/16 12:07:11;;;;;;;6.18;1.00;;;20.90;94.90;;;;;;5089883;28;20147;-71
2022/07/16 12:09:39;;;;;;;3.17;0.80;;;21.10;95.90;;;;;;5089758;28;20051;-69
2022/07/16 12:12:08;;;;;;;5.75;0.98;;;20.90;95.60;;;;;;5091011;28;20419;-69
2022/07/16 12:14:46;;;;;;;4.85;0.93;;;21.00;95.90;;;;;;5090983;28;20051;-69
2022/07/16 12:17:39;;;;;;;5.60;1.88;;;21.10;96.60;;;;;;5089818;28;20373;-69
2022/07/16 12:20:25;;;;;;;6.40;0.90;;;21.10;95.80;;;;;;5090298;28;20424;-70
2022/07/16 12:22:58;;;;;;;5.43;0.90;;;21.30;96.50;;;;;;5089511;28;20074;-70
2022/07/16 12:25:45;;;;;;;4.97;0.82;;;21.20;96.40;;;;;;5089559;28;20035;-70
2022/07/16 12:28:19;;;;;;;7.82;1.10;;;21.20;95.60;;;;;;5090692;28;20071;-69
2022/07/16 12:30:51;;;;;;;5.43;1.10;;;21.00;95.50;;;;;;5089547;28;20097;-69
2022/07/16 12:33:19;;;;;;;4.43;0.95;;;20.80;96.00;;;;;;5072212;28;20040;-70
2022/07/16 12:35:59;;;;;;;6.25;1.25;;;21.10;96.60;;;;;;5089329;28;20047;-70
2022/07/16 12:38:58;;;;;;;7.93;1.10;;;21.20;96.50;;;;;;5090646;28;20043;-70
2022/07/16 12:41:34;;;;;;;6.88;1.30;;;21.20;96.30;;;;;;5091175;28;20040;-70
2022/07/16 12:44:15;;;;;;;5.05;1.17;;;21.40;96.40;;;;;;5103672;28;20435;-70
2022/07/16 12:46:46;;;;;;;4.97;1.27;;;21.40;96.80;;;;;;5104214;28;20466;-71
2022/07/16 12:49:14;;;;;;;3.80;1.30;;;21.50;95.90;;;;;;5090883;28;20073;-70
2022/07/16 12:51:43;;;;;;;4.13;0.75;;;21.30;96.50;;;;;;5089645;28;20406;-70
2022/07/16 12:54:10;;;;;;;8.68;1.23;;;21.20;95.70;;;;;;5090480;28;20478;-69
2022/07/16 12:59:22;;;;;;;3.90;0.90;;;21.10;96.70;;;;;;5090459;28;20040;-69